createdAt,value
2017-05-20T00:01:02.379Z,0
2017-05-20T00:02:11.699Z,0
2017-05-20T00:03:21.968Z,0
2017-05-20T00:04:32.243Z,0
2017-05-20T00:05:41.886Z,0
2017-05-20T00:06:51.839Z,0
2017-05-20T00:08:02.103Z,0
2017-05-20T00:09:12.058Z,0
2017-05-20T00:10:22.012Z,0
2017-05-20T00:11:32.273Z,0
2017-05-20T00:12:42.223Z,0
2017-05-20T00:13:52.178Z,0
2017-05-20T00:15:02.135Z,0
2017-05-20T00:16:12.085Z,0
2017-05-20T00:17:22.035Z,0
2017-05-20T00:18:32.313Z,0
2017-05-20T00:19:42.276Z,0
2017-05-20T00:20:52.233Z,0
2017-05-20T00:22:04.493Z,0
2017-05-20T00:23:14.443Z,0
2017-05-20T00:24:24.400Z,0
2017-05-20T00:25:34.346Z,0
2017-05-20T00:26:43.987Z,0
2017-05-20T00:27:54.256Z,0
2017-05-20T00:29:03.895Z,0
2017-05-20T00:30:13.530Z,0
2017-05-20T00:31:23.177Z,0
2017-05-20T00:32:33.442Z,0
2017-05-20T00:33:43.707Z,0
2017-05-20T00:34:53.656Z,0
2017-05-20T00:36:03.925Z,0
2017-05-20T00:37:13.889Z,0
2017-05-20T00:38:23.531Z,0
2017-05-20T00:39:33.794Z,0
2017-05-20T00:40:43.441Z,0
2017-05-20T00:41:53.386Z,0
2017-05-20T00:43:02.714Z,0
2017-05-20T00:44:12.980Z,0
2017-05-20T00:45:23.241Z,0
2017-05-20T00:46:33.503Z,0
2017-05-20T00:47:43.466Z,0
2017-05-20T00:48:53.419Z,0
2017-05-20T00:50:03.371Z,0
2017-05-20T00:51:13.324Z,0
2017-05-20T00:52:23.275Z,0
2017-05-20T00:53:33.551Z,0
2017-05-20T00:54:43.502Z,0
2017-05-20T00:55:53.452Z,0
2017-05-20T00:57:03.718Z,0
2017-05-20T00:58:13.355Z,0
2017-05-20T00:59:23.309Z,0
2017-05-20T01:00:33.574Z,0
2017-05-20T01:01:43.527Z,0
2017-05-20T01:02:53.485Z,0
2017-05-20T01:04:03.755Z,0
2017-05-20T01:05:13.719Z,0
2017-05-20T01:06:23.982Z,0
2017-05-20T01:07:34.249Z,0
2017-05-20T01:08:44.523Z,0
2017-05-20T01:09:54.470Z,0
2017-05-20T01:11:04.733Z,0
2017-05-20T01:12:14.368Z,0
2017-05-20T01:13:24.642Z,0
2017-05-20T01:14:34.593Z,0
2017-05-20T01:15:44.234Z,0
2017-05-20T01:16:54.498Z,0
2017-05-20T01:18:04.136Z,0
2017-05-20T01:19:14.084Z,0
2017-05-20T01:20:24.031Z,0
2017-05-20T01:21:34.293Z,0
2017-05-20T01:22:44.244Z,0
2017-05-20T01:23:54.508Z,0
2017-05-20T01:25:04.154Z,0
2017-05-20T01:26:14.099Z,0
2017-05-20T01:27:24.050Z,0
2017-05-20T01:28:34.315Z,0
2017-05-20T01:29:44.582Z,0
2017-05-20T01:30:54.530Z,0
2017-05-20T01:32:04.479Z,0
2017-05-20T01:33:14.430Z,0
2017-05-20T01:34:24.758Z,0
2017-05-20T01:35:34.771Z,4
2017-05-20T01:36:45.033Z,4
2017-05-20T01:37:54.667Z,4
2017-05-20T01:39:04.618Z,0
2017-05-20T01:40:14.580Z,0
2017-05-20T01:41:24.215Z,4
2017-05-20T01:42:34.165Z,4
2017-05-20T01:43:45.503Z,4
2017-05-20T01:44:55.148Z,0
2017-05-20T01:46:05.104Z,0
2017-05-20T01:47:15.054Z,4
2017-05-20T01:48:25.005Z,4
2017-05-20T01:49:34.953Z,4
2017-05-20T01:50:44.588Z,4
2017-05-20T01:51:54.542Z,4
2017-05-20T01:53:04.495Z,4
2017-05-20T01:54:14.453Z,8
2017-05-20T01:55:24.714Z,4
2017-05-20T01:56:34.973Z,8
2017-05-20T01:57:45.244Z,8
2017-05-20T01:58:55.523Z,8
2017-05-20T02:00:05.160Z,8
2017-05-20T02:01:14.797Z,12
2017-05-20T02:02:24.750Z,16
2017-05-20T02:03:35.019Z,16
2017-05-20T02:04:45.289Z,16
2017-05-20T02:05:55.558Z,20
2017-05-20T02:07:04.884Z,16
2017-05-20T02:08:15.151Z,16
2017-05-20T02:09:25.414Z,16
2017-05-20T02:10:35.682Z,16
2017-05-20T02:11:45.635Z,16
2017-05-20T02:12:55.901Z,16
2017-05-20T02:14:04.909Z,16
2017-05-20T02:15:15.173Z,16
2017-05-20T02:16:25.129Z,20
2017-05-20T02:17:35.393Z,16
2017-05-20T02:18:45.659Z,16
2017-05-20T02:19:55.945Z,20
2017-05-20T02:21:05.587Z,24
2017-05-20T02:22:15.861Z,24
2017-05-20T02:23:26.122Z,28
2017-05-20T02:24:36.384Z,36
2017-05-20T02:25:46.339Z,40
2017-05-20T02:26:56.289Z,44
2017-05-20T02:28:06.617Z,48
2017-05-20T02:29:16.569Z,48
2017-05-20T02:30:26.830Z,52
2017-05-20T02:31:36.777Z,56
2017-05-20T02:32:46.726Z,64
2017-05-20T02:33:57.047Z,68
2017-05-20T02:35:07.008Z,68
2017-05-20T02:36:16.640Z,72
2017-05-20T02:37:26.907Z,76
2017-05-20T02:38:37.187Z,80
2017-05-20T02:39:46.833Z,84
2017-05-20T02:40:57.099Z,92
2017-05-20T02:42:07.051Z,104
2017-05-20T02:43:16.692Z,108
2017-05-20T02:44:26.972Z,120
2017-05-20T02:45:36.609Z,136
2017-05-20T02:46:46.876Z,148
2017-05-20T02:47:56.827Z,152
2017-05-20T02:49:07.095Z,156
2017-05-20T02:50:17.049Z,148
2017-05-20T02:51:27.318Z,136
2017-05-20T02:52:37.579Z,132
2017-05-20T02:53:47.540Z,140
2017-05-20T02:54:57.497Z,148
2017-05-20T02:56:07.759Z,160
2017-05-20T02:57:17.713Z,168
2017-05-20T02:58:27.669Z,176
2017-05-20T02:59:37.938Z,180
2017-05-20T03:00:48.206Z,184
2017-05-20T03:01:58.473Z,192
2017-05-20T03:03:08.108Z,200
2017-05-20T03:04:18.373Z,224
2017-05-20T03:05:28.634Z,248
2017-05-20T03:06:38.895Z,276
2017-05-20T03:07:49.161Z,300
2017-05-20T03:08:59.112Z,308
2017-05-20T03:10:09.380Z,316
2017-05-20T03:11:19.330Z,328
2017-05-20T03:12:29.591Z,332
2017-05-20T03:13:39.546Z,340
2017-05-20T03:14:49.505Z,344
2017-05-20T03:15:59.766Z,336
2017-05-20T03:17:10.029Z,340
2017-05-20T03:18:19.973Z,344
2017-05-20T03:19:30.254Z,348
2017-05-20T03:20:40.212Z,384
2017-05-20T03:21:50.485Z,420
2017-05-20T03:23:00.441Z,444
2017-05-20T03:24:10.401Z,448
2017-05-20T03:25:20.414Z,456
2017-05-20T03:26:30.686Z,436
2017-05-20T03:27:40.693Z,432
2017-05-20T03:28:50.648Z,456
2017-05-20T03:30:00.972Z,488
2017-05-20T03:31:11.235Z,508
2017-05-20T03:32:21.504Z,504
2017-05-20T03:33:31.452Z,472
2017-05-20T03:34:41.399Z,432
2017-05-20T03:35:51.037Z,376
2017-05-20T03:37:01.307Z,356
2017-05-20T03:38:11.573Z,376
2017-05-20T03:39:21.214Z,420
2017-05-20T03:40:31.482Z,492
2017-05-20T03:41:41.423Z,540
2017-05-20T03:42:51.071Z,560
2017-05-20T03:44:00.715Z,576
2017-05-20T03:45:10.668Z,580
2017-05-20T03:46:20.930Z,556
2017-05-20T03:47:30.563Z,532
2017-05-20T03:48:40.230Z,528
2017-05-20T03:49:49.869Z,528
2017-05-20T03:50:59.880Z,564
2017-05-20T03:52:10.144Z,592
2017-05-20T03:53:19.780Z,608
2017-05-20T03:54:30.057Z,588
2017-05-20T03:55:40.324Z,572
2017-05-20T03:56:50.273Z,588
2017-05-20T03:57:59.916Z,624
2017-05-20T03:59:09.867Z,660
2017-05-20T04:00:20.129Z,664
2017-05-20T04:01:30.083Z,636
2017-05-20T04:02:40.345Z,660
2017-05-20T04:03:50.324Z,664
2017-05-20T04:04:59.960Z,648
2017-05-20T04:06:09.917Z,636
2017-05-20T04:07:19.869Z,612
2017-05-20T04:08:30.140Z,580
2017-05-20T04:09:40.405Z,560
2017-05-20T04:10:49.722Z,548
2017-05-20T04:11:59.993Z,564
2017-05-20T04:13:09.943Z,596
2017-05-20T04:14:19.895Z,620
2017-05-20T04:15:29.582Z,624
2017-05-20T04:16:39.867Z,628
2017-05-20T04:17:49.827Z,636
2017-05-20T04:19:00.103Z,656
2017-05-20T04:20:09.742Z,660
2017-05-20T04:21:20.003Z,648
2017-05-20T04:22:29.946Z,620
2017-05-20T04:23:39.898Z,608
2017-05-20T04:24:49.846Z,584
2017-05-20T04:25:59.481Z,584
2017-05-20T04:27:09.427Z,588
2017-05-20T04:28:18.753Z,596
2017-05-20T04:29:29.032Z,628
2017-05-20T04:30:39.360Z,652
2017-05-20T04:31:49.314Z,656
2017-05-20T04:32:59.585Z,652
2017-05-20T04:34:09.232Z,652
2017-05-20T04:35:19.188Z,660
2017-05-20T04:36:29.458Z,668
2017-05-20T04:37:39.726Z,676
2017-05-20T04:38:49.740Z,692
2017-05-20T04:40:00.009Z,696
2017-05-20T04:41:09.957Z,704
2017-05-20T04:42:20.224Z,724
2017-05-20T04:43:30.504Z,740
2017-05-20T04:44:40.775Z,740
2017-05-20T04:45:50.726Z,728
2017-05-20T04:47:00.047Z,716
2017-05-20T04:48:10.000Z,720
2017-05-20T04:49:19.845Z,740
2017-05-20T04:50:29.488Z,760
2017-05-20T04:51:39.753Z,768
2017-05-20T04:52:49.704Z,784
2017-05-20T04:53:59.339Z,804
2017-05-20T04:55:09.606Z,824
2017-05-20T04:56:19.872Z,880
2017-05-20T04:57:30.133Z,948
2017-05-20T04:58:40.082Z,984
2017-05-20T04:59:50.034Z,1004
2017-05-20T05:00:59.997Z,996
2017-05-20T05:02:09.945Z,1012
2017-05-20T05:03:19.902Z,1028
2017-05-20T05:04:30.175Z,1056
2017-05-20T05:05:40.437Z,1060
2017-05-20T05:06:50.077Z,1056
2017-05-20T05:07:59.715Z,1048
2017-05-20T05:09:09.667Z,1084
2017-05-20T05:10:19.308Z,1140
2017-05-20T05:11:29.573Z,1224
2017-05-20T05:12:39.833Z,1324
2017-05-20T05:13:49.470Z,1412
2017-05-20T05:14:59.742Z,1488
2017-05-20T05:16:10.014Z,1552
2017-05-20T05:17:19.970Z,1580
2017-05-20T05:18:30.232Z,1568
2017-05-20T05:19:40.503Z,1572
2017-05-20T05:20:50.143Z,1572
2017-05-20T05:21:59.776Z,1592
2017-05-20T05:23:09.730Z,1660
2017-05-20T05:24:19.995Z,1720
2017-05-20T05:25:30.272Z,1724
2017-05-20T05:26:40.227Z,1692
2017-05-20T05:27:50.492Z,1692
2017-05-20T05:29:00.760Z,1760
2017-05-20T05:30:10.716Z,1864
2017-05-20T05:31:20.668Z,1956
2017-05-20T05:32:30.612Z,2000
2017-05-20T05:33:40.247Z,2044
2017-05-20T05:34:50.199Z,2180
2017-05-20T05:36:00.465Z,2376
2017-05-20T05:37:10.409Z,2592
2017-05-20T05:38:20.057Z,2792
2017-05-20T05:39:30.336Z,3004
2017-05-20T05:40:40.631Z,3228
2017-05-20T05:41:50.901Z,3424
2017-05-20T05:43:01.165Z,3588
2017-05-20T05:44:11.122Z,3628
2017-05-20T05:45:20.767Z,3532
2017-05-20T05:46:31.047Z,3428
2017-05-20T05:47:41.315Z,3404
2017-05-20T05:48:51.281Z,3452
2017-05-20T05:50:01.552Z,3536
2017-05-20T05:51:11.507Z,3656
2017-05-20T05:52:21.777Z,3732
2017-05-20T05:53:32.056Z,3700
2017-05-20T05:54:42.010Z,3508
2017-05-20T05:55:51.653Z,3292
2017-05-20T05:57:01.922Z,3116
2017-05-20T05:58:11.245Z,3000
2017-05-20T05:59:21.197Z,3080
2017-05-20T06:00:30.836Z,3248
2017-05-20T06:01:41.101Z,3432
2017-05-20T06:02:51.368Z,3600
2017-05-20T06:04:01.000Z,3752
2017-05-20T06:05:10.641Z,3948
2017-05-20T06:06:20.600Z,4156
2017-05-20T06:07:30.550Z,4364
2017-05-20T06:08:40.820Z,4464
2017-05-20T06:09:50.774Z,4316
2017-05-20T06:11:00.093Z,3964
2017-05-20T06:12:09.731Z,3588
2017-05-20T06:13:19.701Z,3388
2017-05-20T06:14:29.659Z,3352
2017-05-20T06:15:39.613Z,3392
2017-05-20T06:16:49.878Z,3508
2017-05-20T06:18:00.148Z,3672
2017-05-20T06:19:10.101Z,3724
2017-05-20T06:20:20.372Z,3596
2017-05-20T06:21:30.339Z,3400
2017-05-20T06:22:40.601Z,3272
2017-05-20T06:23:50.871Z,3268
2017-05-20T06:25:00.831Z,3384
2017-05-20T06:26:11.094Z,3576
2017-05-20T06:27:21.039Z,3744
2017-05-20T06:28:31.311Z,3836
2017-05-20T06:29:41.578Z,3836
2017-05-20T06:30:51.262Z,3772
2017-05-20T06:32:00.897Z,3720
2017-05-20T06:33:10.216Z,3660
2017-05-20T06:34:20.485Z,3516
2017-05-20T06:35:30.127Z,3328
2017-05-20T06:36:40.398Z,3156
2017-05-20T06:37:50.670Z,3048
2017-05-20T06:39:00.622Z,3000
2017-05-20T06:40:10.578Z,2968
2017-05-20T06:41:20.527Z,2908
2017-05-20T06:42:30.477Z,2868
2017-05-20T06:43:40.434Z,2844
2017-05-20T06:44:50.698Z,2788
2017-05-20T06:46:00.960Z,2720
2017-05-20T06:47:10.913Z,2692
2017-05-20T06:48:21.181Z,2732
2017-05-20T06:49:31.454Z,2804
2017-05-20T06:50:41.720Z,2912
2017-05-20T06:51:51.353Z,3032
2017-05-20T06:53:00.360Z,3196
2017-05-20T06:54:10.000Z,3360
2017-05-20T06:55:19.953Z,3520
2017-05-20T06:56:29.586Z,3632
2017-05-20T06:57:39.855Z,3704
2017-05-20T06:58:49.817Z,3712
2017-05-20T07:00:00.097Z,3684
2017-05-20T07:01:10.049Z,3720
2017-05-20T07:02:20.315Z,3804
2017-05-20T07:03:30.583Z,3932
2017-05-20T07:04:40.849Z,4032
2017-05-20T07:05:50.817Z,4088
2017-05-20T07:07:01.085Z,4152
2017-05-20T07:08:11.358Z,4296
2017-05-20T07:09:21.008Z,4436
2017-05-20T07:10:30.647Z,4464
2017-05-20T07:11:40.912Z,4388
2017-05-20T07:12:50.869Z,4308
2017-05-20T07:14:01.145Z,4252
2017-05-20T07:15:11.101Z,4320
2017-05-20T07:16:20.739Z,4480
2017-05-20T07:17:30.693Z,4632
2017-05-20T07:18:40.952Z,4716
2017-05-20T07:19:50.595Z,4732
2017-05-20T07:21:00.547Z,4760
2017-05-20T07:22:10.184Z,4780
2017-05-20T07:23:20.135Z,4792
2017-05-20T07:24:30.398Z,4744
2017-05-20T07:25:40.663Z,4656
2017-05-20T07:26:50.612Z,4636
2017-05-20T07:28:00.885Z,4780
2017-05-20T07:29:11.147Z,4796
2017-05-20T07:30:21.107Z,4588
2017-05-20T07:31:31.376Z,4524
2017-05-20T07:32:41.642Z,4612
2017-05-20T07:33:50.964Z,4828
2017-05-20T07:35:00.602Z,5044
2017-05-20T07:36:10.247Z,5124
2017-05-20T07:37:20.225Z,5020
2017-05-20T07:38:30.495Z,4776
2017-05-20T07:39:40.757Z,4556
2017-05-20T07:40:50.401Z,4416
2017-05-20T07:42:00.352Z,4388
2017-05-20T07:43:10.620Z,4392
2017-05-20T07:44:20.582Z,4416
2017-05-20T07:45:30.537Z,4340
2017-05-20T07:46:40.798Z,4268
2017-05-20T07:47:50.746Z,4344
2017-05-20T07:49:00.384Z,4616
2017-05-20T07:50:10.347Z,5036
2017-05-20T07:51:20.578Z,5528
2017-05-20T07:52:30.848Z,5968
2017-05-20T07:53:40.796Z,6252
2017-05-20T07:54:50.751Z,6388
2017-05-20T07:56:00.709Z,6408
2017-05-20T07:57:10.972Z,6488
2017-05-20T07:58:21.236Z,6364
2017-05-20T07:59:31.501Z,5984
2017-05-20T08:00:41.456Z,5540
2017-05-20T08:01:51.413Z,5188
2017-05-20T08:03:01.365Z,4964
2017-05-20T08:04:11.006Z,4848
2017-05-20T08:05:20.964Z,4716
2017-05-20T08:06:31.234Z,4312
2017-05-20T08:07:41.188Z,3844
2017-05-20T08:08:51.141Z,3504
2017-05-20T08:10:01.100Z,3328
2017-05-20T08:11:11.057Z,3280
2017-05-20T08:12:21.321Z,3364
2017-05-20T08:13:31.588Z,3616
2017-05-20T08:14:41.848Z,3932
2017-05-20T08:15:51.803Z,4244
2017-05-20T08:17:01.451Z,4548
2017-05-20T08:18:11.713Z,4840
2017-05-20T08:19:21.036Z,5040
2017-05-20T08:20:31.300Z,4996
2017-05-20T08:21:41.565Z,4856
2017-05-20T08:22:51.208Z,4840
2017-05-20T08:24:01.161Z,5064
2017-05-20T08:25:10.802Z,5432
2017-05-20T08:26:20.756Z,5760
2017-05-20T08:27:30.713Z,6016
2017-05-20T08:28:40.984Z,6192
2017-05-20T08:29:50.310Z,6428
2017-05-20T08:31:00.269Z,6664
2017-05-20T08:32:10.539Z,6704
2017-05-20T08:33:20.487Z,6288
2017-05-20T08:34:30.769Z,5552
2017-05-20T08:35:41.043Z,4876
2017-05-20T08:36:51.303Z,4400
2017-05-20T08:38:01.262Z,4068
2017-05-20T08:39:10.968Z,3832
2017-05-20T08:40:20.979Z,3680
2017-05-20T08:41:30.924Z,3580
2017-05-20T08:42:40.871Z,3492
2017-05-20T08:43:51.138Z,3368
2017-05-20T08:45:01.097Z,3208
2017-05-20T08:46:10.745Z,3008
2017-05-20T08:47:21.009Z,2788
2017-05-20T08:48:30.962Z,2616
2017-05-20T08:49:40.919Z,2516
2017-05-20T08:50:51.189Z,2472
2017-05-20T08:52:00.826Z,2444
2017-05-20T08:53:09.840Z,2428
2017-05-20T08:54:19.805Z,2416
2017-05-20T08:55:29.766Z,2452
2017-05-20T08:56:39.714Z,2504
2017-05-20T08:57:49.663Z,2548
2017-05-20T08:58:59.924Z,2572
2017-05-20T09:00:09.575Z,2584
2017-05-20T09:01:19.527Z,2600
2017-05-20T09:02:28.855Z,2640
2017-05-20T09:03:39.132Z,2696
2017-05-20T09:04:49.087Z,2724
2017-05-20T09:05:58.724Z,2708
2017-05-20T09:07:09.296Z,2688
2017-05-20T09:08:19.249Z,2688
2017-05-20T09:09:28.904Z,2704
2017-05-20T09:10:39.175Z,2720
2017-05-20T09:11:49.125Z,2728
2017-05-20T09:12:59.079Z,2760
2017-05-20T09:14:09.355Z,2812
2017-05-20T09:15:19.626Z,2892
2017-05-20T09:16:29.578Z,3012
2017-05-20T09:17:39.843Z,3132
2017-05-20T09:18:50.110Z,3248
2017-05-20T09:20:00.398Z,3364
2017-05-20T09:21:10.673Z,3456
2017-05-20T09:22:20.939Z,3508
2017-05-20T09:23:30.941Z,3524
2017-05-20T09:24:40.886Z,3484
2017-05-20T09:25:50.520Z,3420
2017-05-20T09:27:00.783Z,3348
2017-05-20T09:28:10.424Z,3300
2017-05-20T09:29:20.699Z,3244
2017-05-20T09:30:30.970Z,3160
2017-05-20T09:31:40.929Z,3072
2017-05-20T09:32:51.244Z,3040
2017-05-20T09:34:01.516Z,3008
2017-05-20T09:35:11.780Z,2956
2017-05-20T09:36:21.424Z,2884
2017-05-20T09:37:31.693Z,2780
2017-05-20T09:38:41.650Z,2708
2017-05-20T09:39:51.599Z,2704
2017-05-20T09:41:01.555Z,2752
2017-05-20T09:42:11.822Z,2828
2017-05-20T09:43:21.783Z,2880
2017-05-20T09:44:32.053Z,2944
2017-05-20T09:45:42.317Z,3052
2017-05-20T09:46:51.953Z,3100
2017-05-20T09:48:02.226Z,3204
2017-05-20T09:49:12.187Z,3260
2017-05-20T09:50:22.464Z,3152
2017-05-20T09:51:32.424Z,3044
2017-05-20T09:52:42.375Z,2880
2017-05-20T09:53:52.328Z,2756
2017-05-20T09:55:02.290Z,2736
2017-05-20T09:56:12.559Z,2820
2017-05-20T09:57:22.507Z,2936
2017-05-20T09:58:32.782Z,3060
2017-05-20T09:59:43.043Z,3204
2017-05-20T10:00:52.989Z,3416
2017-05-20T10:02:03.254Z,3664
2017-05-20T10:03:13.530Z,3928
2017-05-20T10:04:23.795Z,4408
2017-05-20T10:05:33.431Z,5084
2017-05-20T10:06:43.694Z,5752
2017-05-20T10:07:53.636Z,6240
2017-05-20T10:09:03.268Z,6536
2017-05-20T10:10:13.541Z,6536
2017-05-20T10:11:23.810Z,6060
2017-05-20T10:12:33.765Z,5448
2017-05-20T10:13:43.406Z,4920
2017-05-20T10:14:53.685Z,4560
2017-05-20T10:16:03.331Z,4344
2017-05-20T10:17:13.593Z,4228
2017-05-20T10:18:23.541Z,4200
2017-05-20T10:19:33.494Z,4256
2017-05-20T10:20:43.756Z,4348
2017-05-20T10:21:53.394Z,4404
2017-05-20T10:23:03.663Z,4384
2017-05-20T10:24:13.619Z,4360
2017-05-20T10:25:23.564Z,4404
2017-05-20T10:26:33.522Z,4488
2017-05-20T10:27:43.796Z,4500
2017-05-20T10:28:53.751Z,4352
2017-05-20T10:30:03.705Z,4120
2017-05-20T10:31:13.345Z,3852
2017-05-20T10:32:23.609Z,3644
2017-05-20T10:33:33.883Z,3528
2017-05-20T10:34:43.721Z,3428
2017-05-20T10:35:53.357Z,3304
2017-05-20T10:37:03.633Z,3216
2017-05-20T10:38:13.276Z,3044
2017-05-20T10:39:22.601Z,2780
2017-05-20T10:40:32.871Z,2576
2017-05-20T10:41:43.137Z,2492
2017-05-20T10:42:52.776Z,2504
2017-05-20T10:44:02.726Z,2536
2017-05-20T10:45:12.367Z,2592
2017-05-20T10:46:22.327Z,2656
2017-05-20T10:47:32.600Z,2708
2017-05-20T10:48:42.238Z,2768
2017-05-20T10:49:52.192Z,2868
2017-05-20T10:51:01.517Z,2976
2017-05-20T10:52:11.471Z,3048
2017-05-20T10:53:21.425Z,3024
2017-05-20T10:54:31.692Z,2960
2017-05-20T10:55:41.646Z,2936
2017-05-20T10:56:50.972Z,2944
2017-05-20T10:58:00.917Z,2956
2017-05-20T10:59:11.184Z,2952
2017-05-20T11:00:20.520Z,2952
2017-05-20T11:01:30.791Z,2920
2017-05-20T11:02:41.122Z,2852
2017-05-20T11:03:51.087Z,2800
2017-05-20T11:05:01.362Z,2804
2017-05-20T11:06:11.001Z,2820
2017-05-20T11:07:21.271Z,2844
2017-05-20T11:08:31.224Z,2868
2017-05-20T11:09:40.863Z,2840
2017-05-20T11:10:51.127Z,2776
2017-05-20T11:12:00.453Z,2764
2017-05-20T11:13:10.770Z,2800
2017-05-20T11:14:21.036Z,2852
2017-05-20T11:15:31.300Z,2928
2017-05-20T11:16:41.565Z,3040
2017-05-20T11:17:51.524Z,3140
2017-05-20T11:19:01.788Z,3232
2017-05-20T11:20:12.052Z,3348
2017-05-20T11:21:22.004Z,3460
2017-05-20T11:22:32.274Z,3572
2017-05-20T11:23:42.226Z,3668
2017-05-20T11:24:52.177Z,3740
2017-05-20T11:26:02.438Z,3812
2017-05-20T11:27:12.388Z,3996
2017-05-20T11:28:22.678Z,4280
2017-05-20T11:29:32.954Z,4680
2017-05-20T11:30:43.218Z,5216
2017-05-20T11:31:53.486Z,5752
2017-05-20T11:33:03.443Z,6240
2017-05-20T11:34:13.397Z,6700
2017-05-20T11:35:23.347Z,7104
2017-05-20T11:36:33.297Z,7632
2017-05-20T11:37:43.567Z,8320
2017-05-20T11:38:53.215Z,8880
2017-05-20T11:40:03.489Z,9192
2017-05-20T11:41:13.758Z,9408
2017-05-20T11:42:23.393Z,9520
2017-05-20T11:43:33.345Z,9464
2017-05-20T11:44:43.613Z,9200
2017-05-20T11:45:53.257Z,8596
2017-05-20T11:47:02.897Z,7976
2017-05-20T11:48:12.849Z,7724
2017-05-20T11:49:23.119Z,7768
2017-05-20T11:50:33.378Z,7892
2017-05-20T11:51:43.334Z,7852
2017-05-20T11:52:53.289Z,7552
2017-05-20T11:54:03.241Z,7036
2017-05-20T11:55:13.196Z,6508
2017-05-20T11:56:23.459Z,6080
2017-05-20T11:57:33.721Z,5684
2017-05-20T11:58:43.684Z,5304
2017-05-20T11:59:53.954Z,5028
2017-05-20T12:01:04.216Z,4988
2017-05-20T12:02:14.479Z,5128
2017-05-20T12:03:24.124Z,5456
2017-05-20T12:04:33.766Z,5936
2017-05-20T12:05:43.722Z,6348
2017-05-20T12:06:53.990Z,6724
2017-05-20T12:08:03.629Z,7100
2017-05-20T12:09:13.899Z,7116
2017-05-20T12:10:23.861Z,6808
2017-05-20T12:11:34.123Z,6400
2017-05-20T12:12:44.076Z,5864
2017-05-20T12:13:54.033Z,5304
2017-05-20T12:15:03.357Z,4856
2017-05-20T12:16:13.627Z,4588
2017-05-20T12:17:23.888Z,4464
2017-05-20T12:18:33.524Z,4468
2017-05-20T12:19:45.420Z,4624
2017-05-20T12:20:55.689Z,4748
2017-05-20T12:22:05.954Z,4820
2017-05-20T12:23:15.278Z,4948
2017-05-20T12:24:25.543Z,5340
2017-05-20T12:25:35.494Z,5928
2017-05-20T12:26:45.450Z,6240
2017-05-20T12:27:55.405Z,6308
2017-05-20T12:29:05.673Z,6204
2017-05-20T12:30:15.625Z,5844
2017-05-20T12:31:25.890Z,5356
2017-05-20T12:32:35.535Z,4988
2017-05-20T12:33:45.800Z,4788
2017-05-20T12:34:55.756Z,4640
2017-05-20T12:36:05.714Z,4632
2017-05-20T12:37:15.666Z,4896
2017-05-20T12:38:25.925Z,5504
2017-05-20T12:39:35.557Z,6032
2017-05-20T12:40:45.512Z,6216
2017-05-20T12:41:55.467Z,6284
2017-05-20T12:43:05.741Z,6204
2017-05-20T12:44:16.053Z,5936
2017-05-20T12:45:26.000Z,5656
2017-05-20T12:46:36.271Z,5460
2017-05-20T12:47:46.233Z,5360
2017-05-20T12:48:55.879Z,5252
2017-05-20T12:50:06.149Z,5016
2017-05-20T12:51:16.098Z,4808
2017-05-20T12:52:25.748Z,4640
2017-05-20T12:53:35.697Z,4472
2017-05-20T12:54:45.968Z,4248
2017-05-20T12:55:55.607Z,4088
2017-05-20T12:57:05.248Z,4056
2017-05-20T12:58:15.209Z,4224
2017-05-20T12:59:25.163Z,4412
2017-05-20T13:00:35.428Z,4348
2017-05-20T13:01:45.695Z,4048
2017-05-20T13:02:55.963Z,3732
2017-05-20T13:04:05.912Z,3624
2017-05-20T13:05:16.177Z,3644
2017-05-20T13:06:26.440Z,3752
2017-05-20T13:07:36.391Z,3876
2017-05-20T13:08:46.349Z,4048
2017-05-20T13:09:56.302Z,4300
2017-05-20T13:11:05.949Z,4564
2017-05-20T13:12:15.638Z,4684
2017-05-20T13:13:25.288Z,4656
2017-05-20T13:14:35.242Z,4580
2017-05-20T13:15:45.522Z,4568
2017-05-20T13:16:55.788Z,4620
2017-05-20T13:18:05.737Z,4548
2017-05-20T13:19:16.004Z,4296
2017-05-20T13:20:25.652Z,3944
2017-05-20T13:21:35.911Z,3620
2017-05-20T13:22:46.181Z,3384
2017-05-20T13:23:56.446Z,3164
2017-05-20T13:25:06.399Z,2916
2017-05-20T13:26:16.676Z,2748
2017-05-20T13:27:26.945Z,2592
2017-05-20T13:28:37.218Z,2420
2017-05-20T13:29:47.480Z,2432
2017-05-20T13:30:57.753Z,2612
2017-05-20T13:32:08.016Z,2784
2017-05-20T13:33:17.662Z,2904
2017-05-20T13:34:27.926Z,2972
2017-05-20T13:35:38.195Z,2988
2017-05-20T13:36:48.471Z,2992
2017-05-20T13:37:58.434Z,2988
2017-05-20T13:39:08.395Z,2976
2017-05-20T13:40:18.036Z,2944
2017-05-20T13:41:27.983Z,2968
2017-05-20T13:42:37.937Z,2960
2017-05-20T13:43:48.203Z,2960
2017-05-20T13:44:58.196Z,2920
2017-05-20T13:46:08.151Z,2884
2017-05-20T13:47:18.104Z,2948
2017-05-20T13:48:28.369Z,3080
2017-05-20T13:49:38.004Z,3208
2017-05-20T13:50:48.269Z,3336
2017-05-20T13:51:57.592Z,3296
2017-05-20T13:53:07.552Z,3148
2017-05-20T13:54:17.501Z,2988
2017-05-20T13:55:27.768Z,2888
2017-05-20T13:56:38.034Z,2800
2017-05-20T13:57:47.989Z,2744
2017-05-20T13:58:57.952Z,2764
2017-05-20T14:00:08.231Z,2820
2017-05-20T14:01:18.184Z,2880
2017-05-20T14:02:28.459Z,2916
2017-05-20T14:03:38.731Z,2920
2017-05-20T14:04:48.998Z,2920
2017-05-20T14:05:59.269Z,2876
2017-05-20T14:07:08.906Z,2840
2017-05-20T14:08:19.165Z,2788
2017-05-20T14:09:29.425Z,2728
2017-05-20T14:10:39.378Z,2716
2017-05-20T14:11:49.738Z,2780
2017-05-20T14:12:59.376Z,2924
2017-05-20T14:14:09.017Z,3120
2017-05-20T14:15:19.282Z,3304
2017-05-20T14:16:29.549Z,3416
2017-05-20T14:17:39.501Z,3464
2017-05-20T14:18:48.828Z,3540
2017-05-20T14:19:59.092Z,3756
2017-05-20T14:21:08.731Z,4048
2017-05-20T14:22:19.000Z,4312
2017-05-20T14:23:28.951Z,4528
2017-05-20T14:24:38.902Z,4696
2017-05-20T14:25:49.167Z,4892
2017-05-20T14:26:59.126Z,5056
2017-05-20T14:28:09.420Z,5340
2017-05-20T14:29:19.765Z,5540
2017-05-20T14:30:29.716Z,5428
2017-05-20T14:31:39.982Z,5108
2017-05-20T14:32:49.936Z,4696
2017-05-20T14:33:59.889Z,4156
2017-05-20T14:35:09.844Z,3708
2017-05-20T14:36:19.794Z,3500
2017-05-20T14:37:30.059Z,3568
2017-05-20T14:38:40.331Z,3816
2017-05-20T14:39:50.291Z,4012
2017-05-20T14:40:59.936Z,4072
2017-05-20T14:42:09.888Z,4132
2017-05-20T14:43:19.846Z,4116
2017-05-20T14:44:29.804Z,3900
2017-05-20T14:45:39.443Z,3688
2017-05-20T14:46:49.713Z,3620
2017-05-20T14:47:59.042Z,3616
2017-05-20T14:49:09.309Z,3636
2017-05-20T14:50:19.574Z,3656
2017-05-20T14:51:29.211Z,3684
2017-05-20T14:52:39.481Z,3836
2017-05-20T14:53:49.431Z,4104
2017-05-20T14:54:59.065Z,4368
2017-05-20T14:56:08.766Z,4548
2017-05-20T14:57:18.420Z,4548
2017-05-20T14:58:28.368Z,4432
2017-05-20T14:59:38.321Z,4260
2017-05-20T15:00:48.587Z,4120
2017-05-20T15:01:58.855Z,4116
2017-05-20T15:03:08.186Z,4248
2017-05-20T15:04:18.456Z,4468
2017-05-20T15:05:28.409Z,4652
2017-05-20T15:06:38.361Z,4700
2017-05-20T15:07:48.319Z,4660
2017-05-20T15:08:58.281Z,3892
2017-05-20T15:10:07.603Z,4016
2017-05-20T15:11:17.868Z,3988
2017-05-20T15:12:28.133Z,3936
2017-05-20T15:13:38.092Z,3940
2017-05-20T15:14:47.734Z,4016
2017-05-20T15:15:57.681Z,4164
2017-05-20T15:17:07.322Z,4356
2017-05-20T15:18:17.277Z,4432
2017-05-20T15:19:27.542Z,4472
2017-05-20T15:20:37.490Z,4552
2017-05-20T15:21:47.438Z,4612
2017-05-20T15:22:57.705Z,4612
2017-05-20T15:24:07.044Z,4444
2017-05-20T15:25:16.997Z,4048
2017-05-20T15:26:26.955Z,3836
2017-05-20T15:27:36.962Z,3840
2017-05-20T15:28:46.919Z,3996
2017-05-20T15:29:57.183Z,4212
2017-05-20T15:31:06.825Z,5328
2017-05-20T15:32:16.781Z,5556
2017-05-20T15:33:26.794Z,5784
2017-05-20T15:34:36.744Z,5916
2017-05-20T15:35:46.704Z,6016
2017-05-20T15:36:56.973Z,6284
2017-05-20T15:38:06.303Z,6800
2017-05-20T15:39:15.945Z,7444
2017-05-20T15:40:26.433Z,7756
2017-05-20T15:41:36.390Z,7580
2017-05-20T15:42:46.659Z,7264
2017-05-20T15:43:56.920Z,6920
2017-05-20T15:45:06.873Z,6768
2017-05-20T15:46:17.147Z,6920
2017-05-20T15:47:27.118Z,7336
2017-05-20T15:48:37.390Z,7872
2017-05-20T15:49:49.032Z,8592
2017-05-20T15:50:58.990Z,9384
2017-05-20T15:52:09.257Z,10320